Flight Track Log - Related Links

Times and Time Zones

All times are in EDT time to prevent confusion due to time zone crossing. See the BER2089 flight status page for this flight to view local times or setup timezone preferences in your user account.

Time Position Orientation Groundspeed Altitude Reporting Facility
EDT Latitude Longitude Course Direction KTS MPH feet Rate Location/Type
Sun 12:55:00 PM 29.9778 -12.7138 37° Northeast  Level Estimated
Sun 12:56:00 PM 30.0713 -12.6319 37° Northeast  Level Estimated
Sun 12:57:00 PM 30.1648 -12.5498 37° Northeast  Level Estimated
Sun 12:58:00 PM 30.2582 -12.4675 37° Northeast  Level Estimated
Sun 12:59:00 PM 30.3516 -12.3851 37° Northeast  Level Estimated
Sun 01:00:00 PM 30.4450 -12.3025 37° Northeast  Level Estimated
Sun 01:01:00 PM 30.5383 -12.2198 37° Northeast  Level Estimated
Sun 01:02:00 PM 30.6315 -12.1369 37° Northeast  Level Estimated
Sun 01:03:00 PM 30.7247 -12.0538 37° Northeast  Level Estimated
Sun 01:04:00 PM 30.8178 -11.9706 38° Northeast  Level Estimated
Sun 01:05:00 PM 30.9109 -11.8873 38° Northeast  Level Estimated
Sun 01:06:00 PM 31.0039 -11.8037 38° Northeast  Level Estimated
Sun 01:07:00 PM 31.0969 -11.7200 38° Northeast  Level Estimated
Sun 01:08:00 PM 31.1898 -11.6362 38° Northeast  Level Estimated
Sun 01:09:00 PM 31.2827 -11.5521 38° Northeast  Level Estimated
Sun 01:10:00 PM 31.3755 -11.4679 38° Northeast  Level Estimated
Sun 01:11:00 PM 31.4682 -11.3836 38° Northeast  Level Estimated
Sun 01:12:00 PM 31.5609 -11.2991 38° Northeast  Level Estimated
Sun 01:13:00 PM 31.6536 -11.2144 38° Northeast  Level Estimated
Sun 01:14:00 PM 31.7461 -11.1295 38° Northeast  Level Estimated
Sun 01:15:00 PM 31.8387 -11.0445 38° Northeast  Level Estimated
Sun 01:16:00 PM 31.9312 -10.9593 38° Northeast  Level Estimated
Sun 01:17:00 PM 32.0236 -10.8739 38° Northeast  Level Estimated
Sun 01:18:00 PM 32.1159 -10.7884 38° Northeast  Level Estimated
Sun 01:19:00 PM 32.2082 -10.7026 38° Northeast  Level Estimated
Sun 01:20:00 PM 32.3005 -10.6167 38° Northeast  Level Estimated
Sun 01:21:00 PM 32.3926 -10.5307 38° Northeast  Level Estimated
Sun 01:22:00 PM 32.4848 -10.4444 38° Northeast  Level Estimated
Sun 01:23:00 PM 32.5768 -10.3580 38° Northeast  Level Estimated
Sun 01:24:00 PM 32.6688 -10.2714 38° Northeast  Level Estimated
Sun 01:25:00 PM 32.7608 -10.1846 38° Northeast  Level Estimated
Sun 01:26:00 PM 32.8527 -10.0977 39° Northeast  Level Estimated
Sun 01:27:00 PM 32.9445 -10.0105 39° Northeast  Level Estimated
Sun 01:28:00 PM 33.0363 -9.9232 39° Northeast  Level Estimated
Sun 01:29:00 PM 33.1280 -9.8357 39° Northeast  Level Estimated
Sun 01:30:00 PM 33.2196 -9.7480 39° Northeast  Level Estimated
Sun 01:31:00 PM 33.3112 -9.6602 39° Northeast  Level Estimated
Sun 01:32:00 PM 33.4027 -9.5721 39° Northeast  Level Estimated
Sun 01:33:00 PM 33.4942 -9.4839 39° Northeast  Level Estimated
Sun 01:34:00 PM 33.5856 -9.3955 39° Northeast  Level Estimated
Sun 01:35:00 PM 33.6769 -9.3069 39° Northeast  Level Estimated
Sun 01:36:00 PM 33.7682 -9.2181 39° Northeast  Level Estimated
Sun 01:37:00 PM 33.8594 -9.1291 39° Northeast  Level Estimated
Sun 01:38:00 PM 33.9505 -9.0399 39° Northeast  Level Estimated
Sun 01:39:00 PM 34.0416 -8.9505 39° Northeast  Level Estimated
Sun 01:40:00 PM 34.1326 -8.8610 39° Northeast  Level Estimated
Sun 01:41:00 PM 34.2236 -8.7712 39° Northeast  Level Estimated
Sun 01:42:00 PM 34.3145 -8.6812 39° Northeast  Level Estimated
Sun 01:43:00 PM 34.4053 -8.5911 39° Northeast  Level Estimated
Sun 01:44:00 PM 34.4960 -8.5008 39° Northeast  Level Estimated
Sun 01:45:00 PM 34.5867 -8.4102 39° Northeast  Level Estimated
Sun 01:46:00 PM 34.6773 -8.3195 40° Northeast  Level Estimated
Sun 01:47:00 PM 34.7679 -8.2285 40° Northeast  Level Estimated
Sun 01:48:00 PM 34.8584 -8.1374 40° Northeast  Level Estimated
Sun 01:49:00 PM 34.9488 -8.0461 40° Northeast  Level Estimated
Sun 01:50:00 PM 35.0391 -7.9545 40° Northeast  Level Estimated
Sun 01:51:00 PM 35.1294 -7.8628 40° Northeast  Level Estimated
Sun 01:52:00 PM 35.2196 -7.7709 40° Northeast  Level Estimated
Sun 01:53:00 PM 35.3097 -7.6787 40° Northeast  Level Estimated
Sun 01:54:00 PM 35.3998 -7.5864 40° Northeast  Level Estimated
Sun 01:55:00 PM 35.4898 -7.4938 40° Northeast  Level Estimated
Sun 01:56:00 PM 35.5797 -7.4010 40° Northeast  Level Estimated
Sun 01:57:00 PM 35.6696 -7.3081 40° Northeast  Level Estimated
Sun 01:58:00 PM 35.7593 -7.2149 40° Northeast  Level Estimated
Sun 01:59:00 PM 35.8491 -7.1215 40° Northeast  Level Estimated
Sun 02:00:00 PM 35.9387 -7.0279 40° Northeast  Level Estimated
Sun 02:01:00 PM 36.0283 -6.9341 40° Northeast  Level Estimated
Sun 02:02:00 PM 36.1177 -6.8400 40° Northeast  Level Estimated
Sun 02:03:00 PM 36.2072 -6.7458 40° Northeast  Level Estimated
Sun 02:04:00 PM 36.2965 -6.6513 40° Northeast  Level Estimated
Sun 02:05:00 PM 36.3858 -6.5567 41° Northeast  Level Estimated
Sun 02:06:00 PM 36.4750 -6.4618 41° Northeast  Level Estimated
Sun 02:07:00 PM 36.5641 -6.3666 41° Northeast  Level Estimated
Sun 02:08:00 PM 36.6531 -6.2713 41° Northeast  Level Estimated
Sun 02:09:00 PM 36.7421 -6.1758 41° Northeast  Level Estimated
Sun 02:10:00 PM 36.8310 -6.0800 41° Northeast  Level Estimated
Sun 02:11:00 PM 36.9198 -5.9840 41° Northeast  Level Estimated
Sun 02:12:00 PM 37.0085 -5.8878 41° Northeast  Level Estimated
Sun 02:13:00 PM 37.0972 -5.7913 41° Northeast  Level Estimated
Sun 02:14:00 PM 37.1858 -5.6946 41° Northeast  Level Estimated
Sun 02:15:00 PM 37.2743 -5.5977 41° Northeast  Level Estimated
Sun 02:16:00 PM 37.3627 -5.5006 41° Northeast  Level Estimated
Sun 02:17:00 PM 37.4510 -5.4033 41° Northeast  Level Estimated
Sun 02:18:00 PM 37.5393 -5.3057 41° Northeast  Level Estimated
Sun 02:19:00 PM 37.6275 -5.2078 41° Northeast  Level Estimated
Sun 02:20:00 PM 37.7156 -5.1098 41° Northeast  Level Estimated
Sun 02:21:00 PM 37.8036 -5.0115 41° Northeast  Level Estimated
Sun 02:22:00 PM 37.8915 -4.9130 42° Northeast  Level Estimated
Sun 02:23:00 PM 37.9794 -4.8142 42° Northeast  Level Estimated
Sun 02:24:00 PM 38.0672 -4.7153 42° Northeast  Level Estimated
Sun 02:25:00 PM 38.1549 -4.6160 42° Northeast  Level Estimated
Sun 02:26:00 PM 38.2425 -4.5166 42° Northeast  Level Estimated
Sun 02:27:00 PM 38.3300 -4.4168 42° Northeast  Level Estimated
Sun 02:28:00 PM 38.4174 -4.3169 42° Northeast  Level Estimated
Sun 02:29:00 PM 38.5048 -4.2167 42° Northeast  Level Estimated
Sun 02:30:00 PM 38.5920 -4.1163 42° Northeast  Level Estimated
Sun 02:31:00 PM 38.6792 -4.0156 42° Northeast  Level Estimated
Sun 02:32:00 PM 38.7663 -3.9147 42° Northeast  Level Estimated
Sun 02:33:00 PM 38.8533 -3.8135 42° Northeast  Level Estimated
Sun 02:34:00 PM 38.9403 -3.7121 42° Northeast  Level Estimated
Sun 02:35:00 PM 39.0271 -3.6104 42° Northeast  Level Estimated
Sun 02:36:00 PM 39.1138 -3.5085 42° Northeast  Level Estimated
Sun 02:37:00 PM 39.2005 -3.4063 42° Northeast  Level Estimated
Sun 02:38:00 PM 39.2870 -3.3039 43° Northeast  Level Estimated
Sun 02:39:00 PM 39.3735 -3.2012 43° Northeast  Level Estimated
Sun 02:40:00 PM 39.4599 -3.0983 43° Northeast  Level Estimated
Sun 02:41:00 PM 39.5462 -2.9951 43° Northeast  Level Estimated
Sun 02:42:00 PM 39.6324 -2.8917 43° Northeast  Level Estimated
Sun 02:43:00 PM 39.7185 -2.7880 43° Northeast  Level Estimated
Sun 02:44:00 PM 39.8045 -2.6840 43° Northeast  Level Estimated
Sun 02:45:00 PM 39.8904 -2.5798 43° Northeast  Level Estimated
Sun 02:46:00 PM 39.9762 -2.4753 43° Northeast  Level Estimated
Sun 02:47:00 PM 40.0620 -2.3706 43° Northeast  Level Estimated
Sun 02:48:00 PM 40.1476 -2.2656 43° Northeast  Level Estimated
Sun 02:49:00 PM 40.2332 -2.1603 43° Northeast  Level Estimated
Sun 02:50:00 PM 40.3186 -2.0548 43° Northeast  Level Estimated
Sun 02:51:00 PM 40.4040 -1.9490 43° Northeast  Level Estimated
Sun 02:52:00 PM 40.4893 -1.8429 43° Northeast  Level Estimated
Sun 02:53:00 PM 40.5744 -1.7365 44° Northeast  Level Estimated
Sun 02:54:00 PM 40.6595 -1.6299 44° Northeast  Level Estimated
Sun 02:55:00 PM 40.7444 -1.5231 44° Northeast  Level Estimated
Sun 02:56:00 PM 40.8293 -1.4159 44° Northeast  Level Estimated
Sun 02:57:00 PM 40.9141 -1.3085 44° Northeast  Level Estimated
Sun 02:58:00 PM 40.9987 -1.2008 44° Northeast  Level Estimated
Sun 02:59:00 PM 41.0833 -1.0928 44° Northeast  Level Estimated
Sun 03:00:00 PM 41.1678 -0.9845 44° Northeast  Level Estimated
Sun 03:01:00 PM 41.2522 -0.8760 44° Northeast  Level Estimated
Sun 03:02:00 PM 41.3364 -0.7671 44° Northeast  Level Estimated
Sun 03:03:00 PM 41.4206 -0.6580 44° Northeast  Level Estimated
Sun 03:04:00 PM 41.5046 -0.5487 44° Northeast  Level Estimated
Sun 03:05:00 PM 41.5886 -0.4390 44° Northeast  Level Estimated
Sun 03:06:00 PM 41.6724 -0.3290 44° Northeast  Level Estimated
Sun 03:07:00 PM 41.7562 -0.2188 45° Northeast  Level Estimated
Sun 03:08:00 PM 41.8398 -0.1082 45° Northeast  Level Estimated
Sun 03:09:00 PM 41.9233 0.0026 45° Northeast  Level Estimated
Sun 03:10:00 PM 42.0068 0.1137 45° Northeast  Level Estimated
Sun 03:11:00 PM 42.0901 0.2251 45° Northeast  Level Estimated
Sun 03:12:00 PM 42.1733 0.3368 45° Northeast  Level Estimated
Sun 03:13:00 PM 42.2564 0.4488 45° Northeast  Level Estimated
Sun 03:14:00 PM 42.3394 0.5611 45° Northeast  Level Estimated
Sun 03:15:00 PM 42.4223 0.6736 45° Northeast  Level Estimated
Sun 03:16:00 PM 42.5050 0.7865 45° Northeast  Level Estimated
Sun 03:17:00 PM 42.5877 0.8997 45° Northeast  Level Estimated
Sun 03:18:00 PM 42.6702 1.0132 45° Northeast  Level Estimated
Sun 03:19:00 PM 42.7527 1.1270 45° Northeast  Level Estimated
Sun 03:20:00 PM 42.8350 1.2410 46° Northeast  Level Estimated
Sun 03:21:00 PM 42.9172 1.3554 46° Northeast  Level Estimated
Sun 03:22:00 PM 42.9993 1.4701 46° Northeast  Level Estimated
Sun 03:23:00 PM 43.0813 1.5851 46° Northeast  Level Estimated
Sun 03:24:00 PM 43.1631 1.7004 46° Northeast  Level Estimated
Sun 03:25:00 PM 43.2449 1.8161 46° Northeast  Level Estimated
Sun 03:26:00 PM 43.3265 1.9320 46° Northeast  Level Estimated
Sun 03:27:00 PM 43.4080 2.0482 46° Northeast  Level Estimated
Sun 03:28:00 PM 43.4894 2.1648 46° Northeast  Level Estimated
Sun 03:29:00 PM 43.5707 2.2816 46° Northeast  Level Estimated
Sun 03:30:00 PM 43.6519 2.3988 46° Northeast  Level Estimated
Sun 03:31:00 PM 43.7329 2.5163 46° Northeast  Level Estimated
Sun 03:32:00 PM 43.8138 2.6341 46° Northeast  Level Estimated
Sun 03:33:00 PM 43.8946 2.7523 47° Northeast  Level Estimated
Sun 03:34:00 PM 43.9753 2.8707 47° Northeast  Level Estimated
Sun 03:35:00 PM 44.0558 2.9895 47° Northeast  Level Estimated
Sun 03:36:00 PM 44.1363 3.1086 47° Northeast  Level Estimated
Sun 03:37:00 PM 44.2166 3.2280 47° Northeast  Level Estimated
Sun 03:38:00 PM 44.2967 3.3478 47° Northeast  Level Estimated
Sun 03:39:00 PM 44.3768 3.4679 47° Northeast  Level Estimated
Sun 03:40:00 PM 44.4567 3.5883 47° Northeast  Level Estimated
Sun 03:41:00 PM 44.5365 3.7090 47° Northeast  Level Estimated
Sun 03:42:00 PM 44.6162 3.8301 47° Northeast  Level Estimated
Sun 03:43:00 PM 44.6957 3.9515 47° Northeast  Level Estimated
Sun 03:44:00 PM 44.7751 4.0732 47° Northeast  Level Estimated
Sun 03:45:00 PM 44.8544 4.1953 48° Northeast  Level Estimated
Sun 03:46:00 PM 44.9336 4.3177 48° Northeast  Level Estimated
Sun 03:47:00 PM 45.0126 4.4405 48° Northeast  Level Estimated
Sun 03:48:00 PM 45.0915 4.5635 48° Northeast  Level Estimated
Sun 03:49:00 PM 45.1702 4.6870 48° Northeast  Level Estimated
Sun 03:50:00 PM 45.2489 4.8107 48° Northeast  Level Estimated
Sun 03:51:00 PM 45.3274 4.9349 48° Northeast  Level Estimated
Sun 03:52:00 PM 45.4057 5.0593 48° Northeast  Level Estimated
Sun 03:53:00 PM 45.4840 5.1841 48° Northeast  Level Estimated
Sun 03:54:00 PM 45.5620 5.3092 48° Northeast  Level Estimated
Sun 03:55:00 PM 45.6400 5.4347 48° Northeast  Level Estimated
Sun 03:56:00 PM 45.7178 5.5606 49° Northeast  Level Estimated
Sun 03:57:00 PM 45.7955 5.6868 49° Northeast  Level Estimated
Sun 03:58:00 PM 45.8730 5.8133 49° Northeast  Level Estimated
Sun 03:59:00 PM 45.9504 5.9402 49° Northeast  Level Estimated
Sun 04:00:00 PM 46.0276 6.0675 49° Northeast  Level Estimated
Sun 04:01:00 PM 46.1048 6.1951 49° Northeast  Level Estimated
Sun 04:02:00 PM 46.1817 6.3231 49° Northeast  Level Estimated
Sun 04:03:00 PM 46.2585 6.4514 49° Northeast  Level Estimated
Sun 04:04:00 PM 46.3352 6.5801 49° Northeast  Level Estimated
Sun 04:05:00 PM 46.4118 6.7091 49° Northeast  Level Estimated
Sun 04:06:00 PM 46.4882 6.8385 49° Northeast  Level Estimated
Sun 04:07:00 PM 46.5644 6.9683 50° Northeast  Level Estimated
Sun 04:08:00 PM 46.6405 7.0984 50° Northeast  Level Estimated
Sun 04:09:00 PM 46.7164 7.2289 50° Northeast  Level Estimated
Sun 04:10:00 PM 46.7922 7.3598 50° Northeast  Level Estimated
Sun 04:11:00 PM 46.8679 7.4910 50° Northeast  Level Estimated
Sun 04:12:00 PM 46.9434 7.6227 50° Northeast  Level Estimated
Sun 04:13:00 PM 47.0187 7.7546 50° Northeast  Level Estimated
Sun 04:14:00 PM 47.0939 7.8870 50° Northeast  Level Estimated
Sun 04:15:00 PM 47.1690 8.0197 50° Northeast  Level Estimated
Sun 04:16:00 PM 47.2439 8.1528 50° Northeast  Level Estimated
Sun 04:17:00 PM 47.3186 8.2863 51° Northeast  Level Estimated
Sun 04:18:00 PM 47.3932 8.4201 51° Northeast  Level Estimated
Sun 04:19:00 PM 47.4676 8.5544 231° Southwest  Level Estimated
Sun 04:20:00 PM 47.3931 8.4202 51° Northeast  Level Estimated
Sun 04:21:00 PM 47.4676 8.5544 231° Southwest  Level Estimated
Sun 04:22:00 PM 47.3931 8.4202 51° Northeast  Level Estimated
Sun 04:23:00 PM 47.4676 8.5544 231° Southwest  Level Estimated
Sun 04:24:00 PM 47.3931 8.4202 51° Northeast  Level Estimated
Sun 04:25:00 PM 47.4676 8.5544 231° Southwest  Level Estimated
Sun 04:26:00 PM 47.3931 8.4202 51° Northeast  Level Estimated
Sun 04:27:00 PM 47.4676 8.5544 231° Southwest  Level Estimated
Sun 04:28:00 PM 47.3931 8.4202 51° Northeast  Level Estimated
Sun 04:29:00 PM 47.4676 8.5544 231° Southwest  Level Estimated
Sun 04:30:00 PM 47.3931 8.4202 51° Northeast  Level Estimated
Sun 04:31:00 PM 47.4676 8.5544 231° Southwest  Level Estimated
Sun 04:32:00 PM 47.3931 8.4202 51° Northeast  Level Estimated
Sun 04:33:00 PM 47.4676 8.5544 231° Southwest  Level Estimated
Sun 04:34:00 PM 47.3931 8.4202 231° Southwest  Level Estimated

Login

Don't have an account? Register now (free) for customized features, flight alerts, and more!